sensor_id;sensor_type;location;lat;lon;timestamp;temperature;humidity
1429;DHT22;708;51.442;7.016;2022-09-17T00:00:43;13.50;99.90
1429;DHT22;708;51.442;7.016;2022-09-17T00:03:10;13.50;99.90
1429;DHT22;708;51.442;7.016;2022-09-17T00:05:37;13.40;99.90
1429;DHT22;708;51.442;7.016;2022-09-17T00:08:04;13.40;99.90
1429;DHT22;708;51.442;7.016;2022-09-17T00:10:37;13.40;99.90
1429;DHT22;708;51.442;7.016;2022-09-17T00:13:04;13.40;99.90
1429;DHT22;708;51.442;7.016;2022-09-17T00:15:31;13.40;99.90
1429;DHT22;708;51.442;7.016;2022-09-17T00:17:57;13.40;99.90
1429;DHT22;708;51.442;7.016;2022-09-17T00:20:25;13.40;99.90
1429;DHT22;708;51.442;7.016;2022-09-17T00:22:52;13.40;99.90
1429;DHT22;708;51.442;7.016;2022-09-17T00:25:19;13.40;99.90
1429;DHT22;708;51.442;7.016;2022-09-17T00:27:47;13.40;99.90
1429;DHT22;708;51.442;7.016;2022-09-17T00:30:14;13.40;99.90
1429;DHT22;708;51.442;7.016;2022-09-17T00:32:41;13.40;99.90
1429;DHT22;708;51.442;7.016;2022-09-17T00:35:07;13.40;99.90
1429;DHT22;708;51.442;7.016;2022-09-17T00:37:34;13.40;99.90
1429;DHT22;708;51.442;7.016;2022-09-17T00:40:01;13.40;99.90
1429;DHT22;708;51.442;7.016;2022-09-17T00:42:28;13.30;99.90
1429;DHT22;708;51.442;7.016;2022-09-17T00:44:56;13.30;99.90
1429;DHT22;708;51.442;7.016;2022-09-17T00:47:27;13.30;99.90
1429;DHT22;708;51.442;7.016;2022-09-17T00:49:56;13.30;99.90
1429;DHT22;708;51.442;7.016;2022-09-17T00:52:27;13.30;99.90
1429;DHT22;708;51.442;7.016;2022-09-17T00:54:59;13.30;99.90
1429;DHT22;708;51.442;7.016;2022-09-17T00:57:28;13.30;99.90
1429;DHT22;708;51.442;7.016;2022-09-17T00:59:57;13.30;99.90
1429;DHT22;708;51.442;7.016;2022-09-17T01:02:24;13.30;99.90
1429;DHT22;708;51.442;7.016;2022-09-17T01:04:51;13.30;99.90
1429;DHT22;708;51.442;7.016;2022-09-17T01:07:30;13.30;99.90
1429;DHT22;708;51.442;7.016;2022-09-17T01:10:04;13.20;99.90
1429;DHT22;708;51.442;7.016;2022-09-17T01:12:50;13.20;99.90
1429;DHT22;708;51.442;7.016;2022-09-17T01:15:29;13.10;99.90
1429;DHT22;708;51.442;7.016;2022-09-17T01:18:10;13.10;99.90
1429;DHT22;708;51.442;7.016;2022-09-17T01:21:09;13.00;99.90
1429;DHT22;708;51.442;7.016;2022-09-17T01:24:20;13.00;99.90
1429;DHT22;708;51.442;7.016;2022-09-17T01:27:20;12.90;99.90
1429;DHT22;708;51.442;7.016;2022-09-17T01:30:01;12.70;99.90
1429;DHT22;708;51.442;7.016;2022-09-17T01:32:34;12.60;99.90
1429;DHT22;708;51.442;7.016;2022-09-17T01:35:11;12.50;99.90
1429;DHT22;708;51.442;7.016;2022-09-17T01:37:46;12.40;99.90
1429;DHT22;708;51.442;7.016;2022-09-17T01:40:19;12.40;99.90
1429;DHT22;708;51.442;7.016;2022-09-17T01:42:54;12.30;99.90
1429;DHT22;708;51.442;7.016;2022-09-17T01:45:26;12.30;99.90
1429;DHT22;708;51.442;7.016;2022-09-17T01:48:02;12.30;99.90
1429;DHT22;708;51.442;7.016;2022-09-17T01:50:36;12.40;99.90
1429;DHT22;708;51.442;7.016;2022-09-17T01:53:04;12.40;99.90
1429;DHT22;708;51.442;7.016;2022-09-17T01:55:37;12.50;99.90
1429;DHT22;708;51.442;7.016;2022-09-17T01:58:09;12.60;99.90
1429;DHT22;708;51.442;7.016;2022-09-17T02:00:37;12.60;99.90
1429;DHT22;708;51.442;7.016;2022-09-17T02:03:12;12.70;99.90
1429;DHT22;708;51.442;7.016;2022-09-17T02:05:42;12.80;99.90
1429;DHT22;708;51.442;7.016;2022-09-17T02:08:13;12.80;99.90
1429;DHT22;708;51.442;7.016;2022-09-17T02:10:43;12.80;99.90
1429;DHT22;708;51.442;7.016;2022-09-17T02:13:16;12.90;99.90
1429;DHT22;708;51.442;7.016;2022-09-17T02:15:48;12.90;99.90
1429;DHT22;708;51.442;7.016;2022-09-17T02:18:23;13.00;99.90
1429;DHT22;708;51.442;7.016;2022-09-17T02:20:56;13.00;99.90
1429;DHT22;708;51.442;7.016;2022-09-17T02:23:30;13.00;99.90
1429;DHT22;708;51.442;7.016;2022-09-17T02:26:03;13.00;99.90
1429;DHT22;708;51.442;7.016;2022-09-17T02:28:37;13.00;99.90
1429;DHT22;708;51.442;7.016;2022-09-17T02:31:06;13.00;99.90
1429;DHT22;708;51.442;7.016;2022-09-17T02:33:36;13.10;99.90
1429;DHT22;708;51.442;7.016;2022-09-17T02:36:05;13.00;99.90
1429;DHT22;708;51.442;7.016;2022-09-17T02:38:32;13.00;99.90
1429;DHT22;708;51.442;7.016;2022-09-17T02:41:04;12.90;99.90
1429;DHT22;708;51.442;7.016;2022-09-17T02:43:40;13.00;99.90
1429;DHT22;708;51.442;7.016;2022-09-17T02:46:21;13.00;99.90
1429;DHT22;708;51.442;7.016;2022-09-17T02:49:19;12.90;99.90
1429;DHT22;708;51.442;7.016;2022-09-17T02:51:55;12.90;99.90
1429;DHT22;708;51.442;7.016;2022-09-17T02:54:30;12.90;99.90
1429;DHT22;708;51.442;7.016;2022-09-17T02:57:06;12.80;99.90
1429;DHT22;708;51.442;7.016;2022-09-17T02:59:42;12.80;99.90
1429;DHT22;708;51.442;7.016;2022-09-17T03:02:17;12.70;99.90
1429;DHT22;708;51.442;7.016;2022-09-17T03:04:47;12.70;99.90
1429;DHT22;708;51.442;7.016;2022-09-17T03:07:16;12.60;99.90
1429;DHT22;708;51.442;7.016;2022-09-17T03:09:44;12.50;99.90
1429;DHT22;708;51.442;7.016;2022-09-17T03:12:11;12.50;99.90
1429;DHT22;708;51.442;7.016;2022-09-17T03:14:38;12.40;99.90
1429;DHT22;708;51.442;7.016;2022-09-17T03:17:05;12.40;99.90
1429;DHT22;708;51.442;7.016;2022-09-17T03:19:32;12.50;99.90
1429;DHT22;708;51.442;7.016;2022-09-17T03:22:00;12.50;99.90
1429;DHT22;708;51.442;7.016;2022-09-17T03:24:26;12.60;99.90
1429;DHT22;708;51.442;7.016;2022-09-17T03:26:53;12.60;99.90
1429;DHT22;708;51.442;7.016;2022-09-17T03:29:20;12.60;99.90
1429;DHT22;708;51.442;7.016;2022-09-17T03:31:47;12.70;99.90
1429;DHT22;708;51.442;7.016;2022-09-17T03:34:13;12.70;99.90
1429;DHT22;708;51.442;7.016;2022-09-17T03:36:40;12.80;99.90
1429;DHT22;708;51.442;7.016;2022-09-17T03:39:08;12.80;99.90
1429;DHT22;708;51.442;7.016;2022-09-17T03:41:35;12.80;99.90
1429;DHT22;708;51.442;7.016;2022-09-17T03:44:02;12.80;99.90
1429;DHT22;708;51.442;7.016;2022-09-17T03:46:29;12.90;99.90
1429;DHT22;708;51.442;7.016;2022-09-17T03:48:55;12.90;99.90
1429;DHT22;708;51.442;7.016;2022-09-17T03:51:22;12.90;99.90
1429;DHT22;708;51.442;7.016;2022-09-17T03:53:49;12.90;99.90
1429;DHT22;708;51.442;7.016;2022-09-17T03:56:17;13.00;99.90
1429;DHT22;708;51.442;7.016;2022-09-17T03:58:44;13.00;99.90
1429;DHT22;708;51.442;7.016;2022-09-17T04:01:11;13.00;1.00
1429;DHT22;708;51.442;7.016;2022-09-17T04:03:37;13.10;1.00
1429;DHT22;708;51.442;7.016;2022-09-17T04:06:04;13.10;1.00
1429;DHT22;708;51.442;7.016;2022-09-17T04:08:31;13.00;1.00
1429;DHT22;708;51.442;7.016;2022-09-17T04:10:58;13.10;1.00
1429;DHT22;708;51.442;7.016;2022-09-17T04:13:26;13.00;1.00
1429;DHT22;708;51.442;7.016;2022-09-17T04:15:53;13.00;1.00
1429;DHT22;708;51.442;7.016;2022-09-17T04:18:20;13.00;1.00
1429;DHT22;708;51.442;7.016;2022-09-17T04:20:47;12.90;1.00
1429;DHT22;708;51.442;7.016;2022-09-17T04:23:13;12.90;1.00
1429;DHT22;708;51.442;7.016;2022-09-17T04:25:40;12.80;1.00
1429;DHT22;708;51.442;7.016;2022-09-17T04:28:07;12.80;1.00
1429;DHT22;708;51.442;7.016;2022-09-17T04:30:35;12.90;1.00
1429;DHT22;708;51.442;7.016;2022-09-17T04:33:02;12.90;1.00
1429;DHT22;708;51.442;7.016;2022-09-17T04:35:29;12.90;1.00
1429;DHT22;708;51.442;7.016;2022-09-17T04:37:56;13.00;1.00
1429;DHT22;708;51.442;7.016;2022-09-17T04:40:24;13.00;1.00
1429;DHT22;708;51.442;7.016;2022-09-17T04:42:52;13.00;1.00
1429;DHT22;708;51.442;7.016;2022-09-17T04:45:19;13.00;1.00
1429;DHT22;708;51.442;7.016;2022-09-17T04:47:47;13.10;1.00
1429;DHT22;708;51.442;7.016;2022-09-17T04:50:15;13.00;1.00
1429;DHT22;708;51.442;7.016;2022-09-17T04:52:43;13.10;1.00
1429;DHT22;708;51.442;7.016;2022-09-17T04:55:10;13.10;1.00
1429;DHT22;708;51.442;7.016;2022-09-17T04:57:37;13.10;1.00
1429;DHT22;708;51.442;7.016;2022-09-17T05:00:05;13.20;1.00
1429;DHT22;708;51.442;7.016;2022-09-17T05:02:33;13.20;1.00
1429;DHT22;708;51.442;7.016;2022-09-17T05:05:01;13.20;1.00
1429;DHT22;708;51.442;7.016;2022-09-17T05:07:28;13.20;1.00
1429;DHT22;708;51.442;7.016;2022-09-17T05:09:54;13.20;1.00
1429;DHT22;708;51.442;7.016;2022-09-17T05:12:21;13.20;1.00
1429;DHT22;708;51.442;7.016;2022-09-17T05:14:48;13.10;1.00
1429;DHT22;708;51.442;7.016;2022-09-17T05:17:14;13.00;1.00
1429;DHT22;708;51.442;7.016;2022-09-17T05:19:41;13.00;1.00
1429;DHT22;708;51.442;7.016;2022-09-17T05:22:09;12.90;1.00
1429;DHT22;708;51.442;7.016;2022-09-17T05:24:36;12.90;1.00
1429;DHT22;708;51.442;7.016;2022-09-17T05:27:04;12.90;1.00
1429;DHT22;708;51.442;7.016;2022-09-17T05:29:31;12.90;1.00
1429;DHT22;708;51.442;7.016;2022-09-17T05:31:57;12.90;1.00
1429;DHT22;708;51.442;7.016;2022-09-17T05:34:24;13.00;1.00
1429;DHT22;708;51.442;7.016;2022-09-17T05:36:51;13.10;1.00
1429;DHT22;708;51.442;7.016;2022-09-17T05:39:19;13.20;1.00
1429;DHT22;708;51.442;7.016;2022-09-17T05:41:49;13.20;1.00
1429;DHT22;708;51.442;7.016;2022-09-17T05:44:16;13.30;1.00
1429;DHT22;708;51.442;7.016;2022-09-17T05:46:43;13.50;1.00
1429;DHT22;708;51.442;7.016;2022-09-17T05:49:10;13.50;1.00
1429;DHT22;708;51.442;7.016;2022-09-17T05:51:37;13.60;1.00
1429;DHT22;708;51.442;7.016;2022-09-17T05:54:04;13.70;1.00
1429;DHT22;708;51.442;7.016;2022-09-17T05:56:32;13.70;1.00
1429;DHT22;708;51.442;7.016;2022-09-17T05:58:59;13.70;1.00
1429;DHT22;708;51.442;7.016;2022-09-17T06:01:26;13.70;1.00
1429;DHT22;708;51.442;7.016;2022-09-17T06:03:53;13.80;1.00
1429;DHT22;708;51.442;7.016;2022-09-17T06:06:20;13.80;1.00
1429;DHT22;708;51.442;7.016;2022-09-17T06:08:46;13.80;1.00
1429;DHT22;708;51.442;7.016;2022-09-17T06:11:13;13.90;1.00
1429;DHT22;708;51.442;7.016;2022-09-17T06:13:41;13.90;1.00
1429;DHT22;708;51.442;7.016;2022-09-17T06:16:08;14.10;1.00
1429;DHT22;708;51.442;7.016;2022-09-17T06:18:35;14.10;99.90
1429;DHT22;708;51.442;7.016;2022-09-17T06:21:07;14.20;99.90
1429;DHT22;708;51.442;7.016;2022-09-17T06:23:37;14.40;99.90
1429;DHT22;708;51.442;7.016;2022-09-17T06:26:07;14.50;99.90
1429;DHT22;708;51.442;7.016;2022-09-17T06:28:34;14.50;99.90
1429;DHT22;708;51.442;7.016;2022-09-17T06:31:03;14.50;99.90
1429;DHT22;708;51.442;7.016;2022-09-17T06:33:31;14.40;99.90
1429;DHT22;708;51.442;7.016;2022-09-17T06:35:59;14.30;99.90
1429;DHT22;708;51.442;7.016;2022-09-17T06:38:27;14.20;99.90
1429;DHT22;708;51.442;7.016;2022-09-17T06:40:54;14.10;99.90
1429;DHT22;708;51.442;7.016;2022-09-17T06:43:22;14.00;99.90
1429;DHT22;708;51.442;7.016;2022-09-17T06:45:52;14.00;99.90
1429;DHT22;708;51.442;7.016;2022-09-17T06:48:21;13.90;99.90
1429;DHT22;708;51.442;7.016;2022-09-17T06:50:51;13.90;99.90
1429;DHT22;708;51.442;7.016;2022-09-17T06:53:19;13.90;1.00
1429;DHT22;708;51.442;7.016;2022-09-17T06:55:49;13.90;1.00
1429;DHT22;708;51.442;7.016;2022-09-17T06:58:19;14.00;1.00
1429;DHT22;708;51.442;7.016;2022-09-17T07:00:45;14.10;1.00
1429;DHT22;708;51.442;7.016;2022-09-17T07:03:12;14.20;1.00
1429;DHT22;708;51.442;7.016;2022-09-17T07:05:42;14.40;1.00
1429;DHT22;708;51.442;7.016;2022-09-17T07:08:10;14.70;99.90
1429;DHT22;708;51.442;7.016;2022-09-17T07:10:36;15.00;99.90
1429;DHT22;708;51.442;7.016;2022-09-17T07:13:03;15.30;99.90
1429;DHT22;708;51.442;7.016;2022-09-17T07:15:30;16.00;1.00
1429;DHT22;708;51.442;7.016;2022-09-17T07:17:57;16.50;99.90
1429;DHT22;708;51.442;7.016;2022-09-17T07:20:24;18.00;99.90
1429;DHT22;708;51.442;7.016;2022-09-17T07:22:57;19.90;99.90
1429;DHT22;708;51.442;7.016;2022-09-17T07:25:25;21.90;1.00
1429;DHT22;708;51.442;7.016;2022-09-17T07:30:19;24.80;1.00
1429;DHT22;708;51.442;7.016;2022-09-17T07:32:46;26.10;99.90
1429;DHT22;708;51.442;7.016;2022-09-17T07:35:13;27.10;99.90
1429;DHT22;708;51.442;7.016;2022-09-17T07:37:40;28.00;99.90
1429;DHT22;708;51.442;7.016;2022-09-17T07:40:08;27.80;99.90
1429;DHT22;708;51.442;7.016;2022-09-17T07:42:35;27.00;99.90
1429;DHT22;708;51.442;7.016;2022-09-17T07:45:02;25.50;99.90
1429;DHT22;708;51.442;7.016;2022-09-17T07:47:29;24.30;99.90
1429;DHT22;708;51.442;7.016;2022-09-17T07:49:55;23.40;99.90
1429;DHT22;708;51.442;7.016;2022-09-17T07:52:22;23.00;99.90
1429;DHT22;708;51.442;7.016;2022-09-17T07:54:49;23.40;99.90
1429;DHT22;708;51.442;7.016;2022-09-17T07:57:17;23.90;99.90
1429;DHT22;708;51.442;7.016;2022-09-17T07:59:44;24.70;99.90
1429;DHT22;708;51.442;7.016;2022-09-17T08:02:11;25.40;99.90
1429;DHT22;708;51.442;7.016;2022-09-17T08:04:40;26.00;99.90
1429;DHT22;708;51.442;7.016;2022-09-17T08:07:10;26.70;99.90
1429;DHT22;708;51.442;7.016;2022-09-17T08:12:04;28.40;99.90
1429;DHT22;708;51.442;7.016;2022-09-17T08:14:33;28.80;99.90
1429;DHT22;708;51.442;7.016;2022-09-17T08:16:59;28.70;99.90
1429;DHT22;708;51.442;7.016;2022-09-17T08:19:28;27.20;99.90
1429;DHT22;708;51.442;7.016;2022-09-17T08:21:56;26.90;99.90
1429;DHT22;708;51.442;7.016;2022-09-17T08:24:23;27.30;99.90
1429;DHT22;708;51.442;7.016;2022-09-17T08:26:50;27.80;99.90
1429;DHT22;708;51.442;7.016;2022-09-17T08:29:16;28.50;99.90
1429;DHT22;708;51.442;7.016;2022-09-17T08:31:44;28.90;99.90
1429;DHT22;708;51.442;7.016;2022-09-17T08:34:11;29.00;99.90
1429;DHT22;708;51.442;7.016;2022-09-17T08:36:38;28.90;99.90
1429;DHT22;708;51.442;7.016;2022-09-17T08:39:05;28.70;99.90
1429;DHT22;708;51.442;7.016;2022-09-17T08:41:41;29.00;99.90
1429;DHT22;708;51.442;7.016;2022-09-17T08:44:24;29.60;99.90
1429;DHT22;708;51.442;7.016;2022-09-17T08:46:57;29.70;99.90
1429;DHT22;708;51.442;7.016;2022-09-17T08:49:29;30.30;94.10
1429;DHT22;708;51.442;7.016;2022-09-17T08:54:55;30.70;95.40
1429;DHT22;708;51.442;7.016;2022-09-17T08:57:29;30.90;93.50
1429;DHT22;708;51.442;7.016;2022-09-17T09:00:05;29.70;82.70
1429;DHT22;708;51.442;7.016;2022-09-17T09:05:14;29.30;81.40
1429;DHT22;708;51.442;7.016;2022-09-17T09:07:46;29.00;90.20
1429;DHT22;708;51.442;7.016;2022-09-17T09:10:18;28.90;89.90
1429;DHT22;708;51.442;7.016;2022-09-17T09:12:49;28.50;89.30
1429;DHT22;708;51.442;7.016;2022-09-17T09:15:31;28.20;89.10
1429;DHT22;708;51.442;7.016;2022-09-17T09:18:10;27.70;88.80
1429;DHT22;708;51.442;7.016;2022-09-17T09:20:44;27.50;87.90
1429;DHT22;708;51.442;7.016;2022-09-17T09:23:18;27.20;87.80
1429;DHT22;708;51.442;7.016;2022-09-17T09:25:52;26.80;85.50
1429;DHT22;708;51.442;7.016;2022-09-17T09:28:35;26.70;86.00
1429;DHT22;708;51.442;7.016;2022-09-17T09:31:20;26.80;87.70
1429;DHT22;708;51.442;7.016;2022-09-17T09:33:52;26.90;87.10
1429;DHT22;708;51.442;7.016;2022-09-17T09:36:19;26.60;86.50
1429;DHT22;708;51.442;7.016;2022-09-17T09:38:52;26.10;85.20
1429;DHT22;708;51.442;7.016;2022-09-17T09:41:25;25.30;84.70
1429;DHT22;708;51.442;7.016;2022-09-17T09:44:00;24.20;84.90
1429;DHT22;708;51.442;7.016;2022-09-17T09:46:40;23.00;89.70
1429;DHT22;708;51.442;7.016;2022-09-17T09:51:52;21.80;84.80
1429;DHT22;708;51.442;7.016;2022-09-17T09:54:33;21.60;96.10
1429;DHT22;708;51.442;7.016;2022-09-17T09:57:05;21.60;99.90
1429;DHT22;708;51.442;7.016;2022-09-17T09:59:34;21.40;99.90
1429;DHT22;708;51.442;7.016;2022-09-17T10:02:01;20.90;99.90
1429;DHT22;708;51.442;7.016;2022-09-17T10:04:30;20.10;99.90
1429;DHT22;708;51.442;7.016;2022-09-17T10:07:00;19.20;1.00
1429;DHT22;708;51.442;7.016;2022-09-17T10:09:29;18.30;99.90
1429;DHT22;708;51.442;7.016;2022-09-17T10:12:15;17.80;99.90
1429;DHT22;708;51.442;7.016;2022-09-17T10:14:43;17.40;99.90
1429;DHT22;708;51.442;7.016;2022-09-17T10:17:16;17.10;1.00
1429;DHT22;708;51.442;7.016;2022-09-17T10:19:46;16.90;99.90
1429;DHT22;708;51.442;7.016;2022-09-17T10:22:36;16.90;99.90
1429;DHT22;708;51.442;7.016;2022-09-17T10:25:05;17.00;1.00
1429;DHT22;708;51.442;7.016;2022-09-17T10:27:33;17.10;1.00
1429;DHT22;708;51.442;7.016;2022-09-17T10:30:13;17.30;1.00
1429;DHT22;708;51.442;7.016;2022-09-17T10:32:40;17.30;1.00
1429;DHT22;708;51.442;7.016;2022-09-17T10:35:24;17.50;1.00
1429;DHT22;708;51.442;7.016;2022-09-17T10:37:52;17.60;1.00
1429;DHT22;708;51.442;7.016;2022-09-17T10:40:26;17.70;99.90
1429;DHT22;708;51.442;7.016;2022-09-17T10:43:21;17.90;1.00
1429;DHT22;708;51.442;7.016;2022-09-17T10:45:56;17.90;99.90
1429;DHT22;708;51.442;7.016;2022-09-17T10:48:26;17.50;1.00
1429;DHT22;708;51.442;7.016;2022-09-17T10:50:56;17.30;1.00
1429;DHT22;708;51.442;7.016;2022-09-17T10:53:25;17.00;99.90
1429;DHT22;708;51.442;7.016;2022-09-17T10:55:57;16.90;1.00
1429;DHT22;708;51.442;7.016;2022-09-17T10:58:39;16.90;99.90
1429;DHT22;708;51.442;7.016;2022-09-17T11:01:20;16.80;99.90
1429;DHT22;708;51.442;7.016;2022-09-17T11:04:03;16.80;22.70
1429;DHT22;708;51.442;7.016;2022-09-17T11:06:55;16.60;99.90
1429;DHT22;708;51.442;7.016;2022-09-17T11:09:35;16.30;1.00
1429;DHT22;708;51.442;7.016;2022-09-17T11:12:20;15.90;1.00
1429;DHT22;708;51.442;7.016;2022-09-17T11:14:53;15.50;1.00
1429;DHT22;708;51.442;7.016;2022-09-17T11:17:37;14.90;1.00
1429;DHT22;708;51.442;7.016;2022-09-17T11:20:23;14.40;85.70
1429;DHT22;708;51.442;7.016;2022-09-17T11:23:24;14.10;99.90
1429;DHT22;708;51.442;7.016;2022-09-17T11:25:55;13.90;99.90
1429;DHT22;708;51.442;7.016;2022-09-17T11:28:39;13.90;99.90
1429;DHT22;708;51.442;7.016;2022-09-17T11:31:18;13.90;99.90
1429;DHT22;708;51.442;7.016;2022-09-17T11:34:12;14.00;99.90
1429;DHT22;708;51.442;7.016;2022-09-17T11:36:49;14.20;99.90
1429;DHT22;708;51.442;7.016;2022-09-17T11:39:24;14.30;99.90
1429;DHT22;708;51.442;7.016;2022-09-17T11:41:54;14.50;99.90
1429;DHT22;708;51.442;7.016;2022-09-17T11:44:26;14.60;99.90
1429;DHT22;708;51.442;7.016;2022-09-17T11:46:58;14.70;99.90
1429;DHT22;708;51.442;7.016;2022-09-17T11:49:29;14.80;24.70
1429;DHT22;708;51.442;7.016;2022-09-17T11:52:03;14.90;1.00
1429;DHT22;708;51.442;7.016;2022-09-17T11:54:38;14.90;1.00
1429;DHT22;708;51.442;7.016;2022-09-17T11:57:12;15.10;99.90
1429;DHT22;708;51.442;7.016;2022-09-17T11:59:43;15.20;99.90
1429;DHT22;708;51.442;7.016;2022-09-17T12:02:18;15.30;99.90
1429;DHT22;708;51.442;7.016;2022-09-17T12:04:54;15.30;99.90
1429;DHT22;708;51.442;7.016;2022-09-17T12:07:33;15.40;99.90
1429;DHT22;708;51.442;7.016;2022-09-17T12:10:17;15.50;99.90
1429;DHT22;708;51.442;7.016;2022-09-17T12:12:58;15.70;99.90
1429;DHT22;708;51.442;7.016;2022-09-17T12:15:29;15.80;99.90
1429;DHT22;708;51.442;7.016;2022-09-17T12:18:05;15.90;1.00
1429;DHT22;708;51.442;7.016;2022-09-17T12:20:35;16.00;17.80
1429;DHT22;708;51.442;7.016;2022-09-17T12:23:09;16.10;99.90
1429;DHT22;708;51.442;7.016;2022-09-17T12:25:43;16.20;1.00
1429;DHT22;708;51.442;7.016;2022-09-17T12:28:16;16.40;1.00
1429;DHT22;708;51.442;7.016;2022-09-17T12:30:51;16.40;99.90
1429;DHT22;708;51.442;7.016;2022-09-17T12:33:26;16.40;1.00
1429;DHT22;708;51.442;7.016;2022-09-17T12:36:16;16.50;1.00
1429;DHT22;708;51.442;7.016;2022-09-17T12:39:05;16.40;1.00
1429;DHT22;708;51.442;7.016;2022-09-17T12:41:45;16.30;97.70
1429;DHT22;708;51.442;7.016;2022-09-17T12:44:36;16.40;99.90
1429;DHT22;708;51.442;7.016;2022-09-17T12:47:16;16.50;99.90
1429;DHT22;708;51.442;7.016;2022-09-17T12:49:56;16.70;99.90
1429;DHT22;708;51.442;7.016;2022-09-17T12:52:34;16.70;1.00
1429;DHT22;708;51.442;7.016;2022-09-17T12:58:09;16.70;1.00
1429;DHT22;708;51.442;7.016;2022-09-17T13:00:41;16.70;99.90
1429;DHT22;708;51.442;7.016;2022-09-17T13:03:17;16.80;99.90
1429;DHT22;708;51.442;7.016;2022-09-17T13:06:07;16.80;99.90
1429;DHT22;708;51.442;7.016;2022-09-17T13:15:01;16.90;1.00
1429;DHT22;708;51.442;7.016;2022-09-17T13:17:37;17.00;99.90
1429;DHT22;708;51.442;7.016;2022-09-17T13:20:14;17.00;1.00
1429;DHT22;708;51.442;7.016;2022-09-17T13:22:45;17.10;1.00
1429;DHT22;708;51.442;7.016;2022-09-17T13:25:14;17.20;99.90
1429;DHT22;708;51.442;7.016;2022-09-17T13:27:42;17.30;99.90
1429;DHT22;708;51.442;7.016;2022-09-17T13:30:12;17.40;99.90
1429;DHT22;708;51.442;7.016;2022-09-17T13:32:48;17.40;77.30
1429;DHT22;708;51.442;7.016;2022-09-17T13:35:48;17.50;99.90
1429;DHT22;708;51.442;7.016;2022-09-17T13:38:16;17.60;1.00
1429;DHT22;708;51.442;7.016;2022-09-17T13:40:44;17.80;99.90
1429;DHT22;708;51.442;7.016;2022-09-17T13:43:13;17.90;99.90
1429;DHT22;708;51.442;7.016;2022-09-17T13:46:12;17.70;99.90
1429;DHT22;708;51.442;7.016;2022-09-17T13:48:49;17.60;99.90
1429;DHT22;708;51.442;7.016;2022-09-17T13:51:42;17.20;99.90
1429;DHT22;708;51.442;7.016;2022-09-17T13:54:10;16.20;1.00
1429;DHT22;708;51.442;7.016;2022-09-17T13:56:40;15.50;99.90
1429;DHT22;708;51.442;7.016;2022-09-17T13:59:10;14.80;1.00
1429;DHT22;708;51.442;7.016;2022-09-17T14:02:24;14.40;99.90
1429;DHT22;708;51.442;7.016;2022-09-17T14:04:53;14.20;99.90
1429;DHT22;708;51.442;7.016;2022-09-17T14:07:34;14.10;99.90
1429;DHT22;708;51.442;7.016;2022-09-17T14:10:33;14.00;99.90
1429;DHT22;708;51.442;7.016;2022-09-17T14:13:26;14.00;1.00
1429;DHT22;708;51.442;7.016;2022-09-17T14:15:59;14.00;1.00
1429;DHT22;708;51.442;7.016;2022-09-17T14:18:35;14.10;1.00
1429;DHT22;708;51.442;7.016;2022-09-17T14:21:17;14.20;1.00
1429;DHT22;708;51.442;7.016;2022-09-17T14:23:51;14.30;1.00
1429;DHT22;708;51.442;7.016;2022-09-17T14:26:35;14.40;1.00
1429;DHT22;708;51.442;7.016;2022-09-17T14:29:11;14.60;1.00
1429;DHT22;708;51.442;7.016;2022-09-17T14:31:41;14.80;99.90
1429;DHT22;708;51.442;7.016;2022-09-17T14:34:15;14.90;99.90
1429;DHT22;708;51.442;7.016;2022-09-17T14:36:43;15.10;1.00
1429;DHT22;708;51.442;7.016;2022-09-17T14:39:16;15.40;1.00
1429;DHT22;708;51.442;7.016;2022-09-17T14:41:46;15.50;99.90
1429;DHT22;708;51.442;7.016;2022-09-17T14:44:17;15.50;99.90
1429;DHT22;708;51.442;7.016;2022-09-17T14:46:49;15.50;99.90
1429;DHT22;708;51.442;7.016;2022-09-17T14:49:20;15.60;99.90
1429;DHT22;708;51.442;7.016;2022-09-17T14:51:47;15.80;99.90
1429;DHT22;708;51.442;7.016;2022-09-17T14:54:19;15.90;99.90
1429;DHT22;708;51.442;7.016;2022-09-17T14:56:53;16.10;99.90
1429;DHT22;708;51.442;7.016;2022-09-17T14:59:25;16.30;6.40
1429;DHT22;708;51.442;7.016;2022-09-17T15:01:53;16.40;1.00
1429;DHT22;708;51.442;7.016;2022-09-17T15:04:23;16.30;1.00
1429;DHT22;708;51.442;7.016;2022-09-17T15:06:50;16.20;1.00
1429;DHT22;708;51.442;7.016;2022-09-17T15:09:20;16.20;1.00
1429;DHT22;708;51.442;7.016;2022-09-17T15:11:47;16.20;1.00
1429;DHT22;708;51.442;7.016;2022-09-17T15:14:17;16.10;99.90
1429;DHT22;708;51.442;7.016;2022-09-17T15:16:47;15.90;99.90
1429;DHT22;708;51.442;7.016;2022-09-17T15:19:21;15.80;99.90
1429;DHT22;708;51.442;7.016;2022-09-17T15:21:51;15.80;1.00
1429;DHT22;708;51.442;7.016;2022-09-17T15:24:27;15.70;1.00
1429;DHT22;708;51.442;7.016;2022-09-17T15:26:59;15.60;1.00
1429;DHT22;708;51.442;7.016;2022-09-17T15:29:29;15.50;99.90
1429;DHT22;708;51.442;7.016;2022-09-17T15:31:58;15.50;1.00
1429;DHT22;708;51.442;7.016;2022-09-17T15:34:26;15.50;1.00
1429;DHT22;708;51.442;7.016;2022-09-17T15:37:03;15.60;1.00
1429;DHT22;708;51.442;7.016;2022-09-17T15:39:36;15.80;1.00
1429;DHT22;708;51.442;7.016;2022-09-17T15:42:04;15.90;99.90
1429;DHT22;708;51.442;7.016;2022-09-17T15:44:31;15.90;99.90
1429;DHT22;708;51.442;7.016;2022-09-17T15:50:17;15.10;99.90
1429;DHT22;708;51.442;7.016;2022-09-17T15:52:45;14.50;99.90
1429;DHT22;708;51.442;7.016;2022-09-17T15:55:30;14.30;1.00
1429;DHT22;708;51.442;7.016;2022-09-17T15:57:58;14.10;48.50
1429;DHT22;708;51.442;7.016;2022-09-17T16:00:25;14.00;1.00
1429;DHT22;708;51.442;7.016;2022-09-17T16:02:53;13.80;99.90
1429;DHT22;708;51.442;7.016;2022-09-17T16:05:48;13.80;99.90
1429;DHT22;708;51.442;7.016;2022-09-17T16:08:20;13.70;99.90
1429;DHT22;708;51.442;7.016;2022-09-17T16:10:47;13.70;99.90
1429;DHT22;708;51.442;7.016;2022-09-17T16:13:14;13.70;1.00
1429;DHT22;708;51.442;7.016;2022-09-17T16:15:41;13.60;1.00
1429;DHT22;708;51.442;7.016;2022-09-17T16:18:11;13.60;1.00
1429;DHT22;708;51.442;7.016;2022-09-17T16:20:39;13.60;1.00
1429;DHT22;708;51.442;7.016;2022-09-17T16:23:07;13.50;1.00
1429;DHT22;708;51.442;7.016;2022-09-17T16:25:36;13.50;1.00
1429;DHT22;708;51.442;7.016;2022-09-17T16:28:08;13.40;1.00
1429;DHT22;708;51.442;7.016;2022-09-17T16:30:35;13.40;1.00
1429;DHT22;708;51.442;7.016;2022-09-17T16:33:03;13.40;1.00
1429;DHT22;708;51.442;7.016;2022-09-17T16:35:31;13.50;1.00
1429;DHT22;708;51.442;7.016;2022-09-17T16:37:58;13.60;1.00
1429;DHT22;708;51.442;7.016;2022-09-17T16:40:26;13.80;99.90
1429;DHT22;708;51.442;7.016;2022-09-17T16:42:53;13.90;99.90
1429;DHT22;708;51.442;7.016;2022-09-17T16:45:20;14.00;99.90
1429;DHT22;708;51.442;7.016;2022-09-17T16:47:47;14.10;99.90
1429;DHT22;708;51.442;7.016;2022-09-17T16:50:15;14.00;99.90
1429;DHT22;708;51.442;7.016;2022-09-17T16:52:43;14.10;99.90
1429;DHT22;708;51.442;7.016;2022-09-17T16:55:11;14.20;99.90
1429;DHT22;708;51.442;7.016;2022-09-17T16:57:40;14.10;99.90
1429;DHT22;708;51.442;7.016;2022-09-17T17:00:09;14.20;99.90
1429;DHT22;708;51.442;7.016;2022-09-17T17:02:37;14.20;99.90
1429;DHT22;708;51.442;7.016;2022-09-17T17:05:04;14.30;99.90
1429;DHT22;708;51.442;7.016;2022-09-17T17:07:31;14.30;99.90
1429;DHT22;708;51.442;7.016;2022-09-17T17:09:58;14.30;99.90
1429;DHT22;708;51.442;7.016;2022-09-17T17:12:25;14.20;99.90
1429;DHT22;708;51.442;7.016;2022-09-17T17:14:53;14.10;99.90
1429;DHT22;708;51.442;7.016;2022-09-17T17:17:20;14.00;99.90
1429;DHT22;708;51.442;7.016;2022-09-17T17:19:47;13.80;99.90